sensor_id;sensor_type;location;lat;lon;timestamp;P1;durP1;ratioP1;P2;durP2;ratioP2
75371;SDS011;63956;52.006;5.878;2023-02-03T00:00:21;13.15;;;2.50;;
75371;SDS011;63956;52.006;5.878;2023-02-03T00:02:53;12.68;;;2.08;;
75371;SDS011;63956;52.006;5.878;2023-02-03T00:07:51;12.25;;;2.67;;
75371;SDS011;63956;52.006;5.878;2023-02-03T00:10:21;17.08;;;2.97;;
75371;SDS011;63956;52.006;5.878;2023-02-03T00:12:53;14.52;;;2.42;;
75371;SDS011;63956;52.006;5.878;2023-02-03T00:15:22;12.43;;;2.15;;
75371;SDS011;63956;52.006;5.878;2023-02-03T00:20:20;12.52;;;2.08;;
75371;SDS011;63956;52.006;5.878;2023-02-03T00:22:50;7.68;;;1.85;;
75371;SDS011;63956;52.006;5.878;2023-02-03T00:25:19;9.68;;;2.40;;
75371;SDS011;63956;52.006;5.878;2023-02-03T00:27:49;10.55;;;2.20;;
75371;SDS011;63956;52.006;5.878;2023-02-03T00:32:49;9.25;;;2.13;;
75371;SDS011;63956;52.006;5.878;2023-02-03T00:35:20;12.52;;;1.85;;
75371;SDS011;63956;52.006;5.878;2023-02-03T00:37:52;8.27;;;1.67;;
75371;SDS011;63956;52.006;5.878;2023-02-03T00:40:23;8.00;;;1.42;;
75371;SDS011;63956;52.006;5.878;2023-02-03T00:42:54;11.68;;;2.28;;
75371;SDS011;63956;52.006;5.878;2023-02-03T00:47:55;9.95;;;1.92;;
75371;SDS011;63956;52.006;5.878;2023-02-03T00:50:24;13.32;;;2.10;;
75371;SDS011;63956;52.006;5.878;2023-02-03T00:52:55;16.05;;;2.10;;
75371;SDS011;63956;52.006;5.878;2023-02-03T00:55:25;14.48;;;2.13;;
75371;SDS011;63956;52.006;5.878;2023-02-03T00:57:54;8.48;;;2.35;;
75371;SDS011;63956;52.006;5.878;2023-02-03T01:02:55;13.23;;;2.38;;
75371;SDS011;63956;52.006;5.878;2023-02-03T01:07:53;11.75;;;1.85;;
75371;SDS011;63956;52.006;5.878;2023-02-03T01:10:22;15.45;;;2.42;;
75371;SDS011;63956;52.006;5.878;2023-02-03T01:15:20;9.68;;;1.90;;
75371;SDS011;63956;52.006;5.878;2023-02-03T01:17:52;9.02;;;2.13;;
75371;SDS011;63956;52.006;5.878;2023-02-03T01:20:21;14.85;;;2.78;;
75371;SDS011;63956;52.006;5.878;2023-02-03T01:25:19;9.07;;;1.95;;
75371;SDS011;63956;52.006;5.878;2023-02-03T01:30:17;13.90;;;2.03;;
75371;SDS011;63956;52.006;5.878;2023-02-03T01:32:46;7.88;;;1.70;;
75371;SDS011;63956;52.006;5.878;2023-02-03T01:37:47;11.45;;;1.95;;
75371;SDS011;63956;52.006;5.878;2023-02-03T01:42:45;9.90;;;1.63;;
75371;SDS011;63956;52.006;5.878;2023-02-03T01:47:47;9.45;;;1.55;;
75371;SDS011;63956;52.006;5.878;2023-02-03T01:50:21;9.93;;;1.75;;
75371;SDS011;63956;52.006;5.878;2023-02-03T01:52:55;9.32;;;1.75;;
75371;SDS011;63956;52.006;5.878;2023-02-03T01:55:30;9.05;;;1.88;;
75371;SDS011;63956;52.006;5.878;2023-02-03T01:58:04;10.93;;;1.92;;
75371;SDS011;63956;52.006;5.878;2023-02-03T02:00:37;14.05;;;1.80;;
75371;SDS011;63956;52.006;5.878;2023-02-03T02:03:06;8.25;;;1.48;;
75371;SDS011;63956;52.006;5.878;2023-02-03T02:05:40;10.13;;;1.98;;
75371;SDS011;63956;52.006;5.878;2023-02-03T02:08:13;11.55;;;2.15;;
75371;SDS011;63956;52.006;5.878;2023-02-03T02:10:44;9.30;;;1.48;;
75371;SDS011;63956;52.006;5.878;2023-02-03T02:13:13;8.55;;;1.35;;
75371;SDS011;63956;52.006;5.878;2023-02-03T02:15:48;9.88;;;1.80;;
75371;SDS011;63956;52.006;5.878;2023-02-03T02:18:31;9.75;;;1.27;;
75371;SDS011;63956;52.006;5.878;2023-02-03T02:21:31;11.10;;;1.67;;
75371;SDS011;63956;52.006;5.878;2023-02-03T02:27:29;12.25;;;2.17;;
75371;SDS011;63956;52.006;5.878;2023-02-03T02:33:24;10.60;;;2.00;;
75371;SDS011;63956;52.006;5.878;2023-02-03T02:36:01;10.15;;;1.80;;
75371;SDS011;63956;52.006;5.878;2023-02-03T02:38:39;12.27;;;2.15;;
75371;SDS011;63956;52.006;5.878;2023-02-03T02:41:15;11.50;;;2.60;;
75371;SDS011;63956;52.006;5.878;2023-02-03T02:43:53;8.80;;;1.50;;
75371;SDS011;63956;52.006;5.878;2023-02-03T02:46:30;10.00;;;1.85;;
75371;SDS011;63956;52.006;5.878;2023-02-03T02:49:08;8.30;;;1.40;;
75371;SDS011;63956;52.006;5.878;2023-02-03T02:51:42;9.32;;;1.65;;
75371;SDS011;63956;52.006;5.878;2023-02-03T02:54:16;7.63;;;1.52;;
75371;SDS011;63956;52.006;5.878;2023-02-03T02:56:50;9.90;;;1.65;;
75371;SDS011;63956;52.006;5.878;2023-02-03T02:59:23;8.73;;;1.60;;
75371;SDS011;63956;52.006;5.878;2023-02-03T03:01:52;8.95;;;1.60;;
75371;SDS011;63956;52.006;5.878;2023-02-03T03:04:24;12.38;;;1.63;;
75371;SDS011;63956;52.006;5.878;2023-02-03T03:06:55;10.32;;;1.83;;
75371;SDS011;63956;52.006;5.878;2023-02-03T03:09:29;9.68;;;1.52;;
75371;SDS011;63956;52.006;5.878;2023-02-03T03:12:03;9.68;;;1.55;;
75371;SDS011;63956;52.006;5.878;2023-02-03T03:14:37;7.65;;;1.92;;
75371;SDS011;63956;52.006;5.878;2023-02-03T03:17:10;9.50;;;1.88;;
75371;SDS011;63956;52.006;5.878;2023-02-03T03:19:48;9.45;;;1.45;;
75371;SDS011;63956;52.006;5.878;2023-02-03T03:24:52;9.93;;;1.80;;
75371;SDS011;63956;52.006;5.878;2023-02-03T03:27:28;10.25;;;2.03;;
75371;SDS011;63956;52.006;5.878;2023-02-03T03:30:00;7.65;;;1.42;;
75371;SDS011;63956;52.006;5.878;2023-02-03T03:32:33;8.25;;;1.73;;
75371;SDS011;63956;52.006;5.878;2023-02-03T03:35:05;8.07;;;1.83;;
75371;SDS011;63956;52.006;5.878;2023-02-03T03:37:36;9.77;;;1.50;;
75371;SDS011;63956;52.006;5.878;2023-02-03T03:40:09;13.23;;;1.85;;
75371;SDS011;63956;52.006;5.878;2023-02-03T03:42:45;15.77;;;2.05;;
75371;SDS011;63956;52.006;5.878;2023-02-03T03:45:21;7.57;;;1.35;;
75371;SDS011;63956;52.006;5.878;2023-02-03T03:47:55;9.45;;;1.70;;
75371;SDS011;63956;52.006;5.878;2023-02-03T03:50:31;8.90;;;1.80;;
75371;SDS011;63956;52.006;5.878;2023-02-03T03:53:04;12.48;;;2.28;;
75371;SDS011;63956;52.006;5.878;2023-02-03T03:55:35;10.98;;;1.58;;
75371;SDS011;63956;52.006;5.878;2023-02-03T03:58:08;11.63;;;2.03;;
75371;SDS011;63956;52.006;5.878;2023-02-03T04:00:40;12.20;;;1.70;;
75371;SDS011;63956;52.006;5.878;2023-02-03T04:03:12;8.13;;;2.00;;
75371;SDS011;63956;52.006;5.878;2023-02-03T04:05:46;8.20;;;1.45;;
75371;SDS011;63956;52.006;5.878;2023-02-03T04:08:16;7.68;;;1.73;;
75371;SDS011;63956;52.006;5.878;2023-02-03T04:10:45;8.77;;;1.85;;
75371;SDS011;63956;52.006;5.878;2023-02-03T04:13:14;7.30;;;2.33;;
75371;SDS011;63956;52.006;5.878;2023-02-03T04:15:45;9.35;;;1.88;;
75371;SDS011;63956;52.006;5.878;2023-02-03T04:20:43;10.07;;;2.10;;
75371;SDS011;63956;52.006;5.878;2023-02-03T04:23:15;15.98;;;1.83;;
75371;SDS011;63956;52.006;5.878;2023-02-03T04:25:44;9.38;;;2.03;;
75371;SDS011;63956;52.006;5.878;2023-02-03T04:30:42;7.03;;;1.45;;
75371;SDS011;63956;52.006;5.878;2023-02-03T04:33:11;12.13;;;1.58;;
75371;SDS011;63956;52.006;5.878;2023-02-03T04:38:09;7.95;;;2.03;;
75371;SDS011;63956;52.006;5.878;2023-02-03T04:40:41;8.52;;;1.63;;
75371;SDS011;63956;52.006;5.878;2023-02-03T04:43:10;8.85;;;2.20;;
75371;SDS011;63956;52.006;5.878;2023-02-03T04:45:41;8.02;;;1.60;;
75371;SDS011;63956;52.006;5.878;2023-02-03T04:50:39;10.45;;;2.10;;
75371;SDS011;63956;52.006;5.878;2023-02-03T04:53:08;6.45;;;1.55;;
75371;SDS011;63956;52.006;5.878;2023-02-03T04:58:09;8.23;;;1.33;;
75371;SDS011;63956;52.006;5.878;2023-02-03T05:00:38;10.15;;;1.45;;
75371;SDS011;63956;52.006;5.878;2023-02-03T05:03:08;7.55;;;1.15;;
75371;SDS011;63956;52.006;5.878;2023-02-03T05:08:06;8.27;;;1.20;;
75371;SDS011;63956;52.006;5.878;2023-02-03T05:10:35;9.07;;;1.40;;
75371;SDS011;63956;52.006;5.878;2023-02-03T05:13:04;10.30;;;1.48;;
75371;SDS011;63956;52.006;5.878;2023-02-03T05:15:36;11.98;;;1.13;;
75371;SDS011;63956;52.006;5.878;2023-02-03T05:18:05;11.07;;;1.85;;
75371;SDS011;63956;52.006;5.878;2023-02-03T05:23:03;10.63;;;1.05;;
75371;SDS011;63956;52.006;5.878;2023-02-03T05:25:32;10.57;;;1.52;;
75371;SDS011;63956;52.006;5.878;2023-02-03T05:30:30;5.65;;;0.93;;
75371;SDS011;63956;52.006;5.878;2023-02-03T05:33:02;8.32;;;1.33;;
75371;SDS011;63956;52.006;5.878;2023-02-03T05:35:31;13.07;;;1.63;;
75371;SDS011;63956;52.006;5.878;2023-02-03T05:38:00;9.70;;;1.55;;
75371;SDS011;63956;52.006;5.878;2023-02-03T05:40:30;9.52;;;1.15;;
75371;SDS011;63956;52.006;5.878;2023-02-03T05:43:11;11.50;;;1.30;;
75371;SDS011;63956;52.006;5.878;2023-02-03T05:45:41;8.00;;;0.90;;
75371;SDS011;63956;52.006;5.878;2023-02-03T05:48:13;8.93;;;1.73;;
75371;SDS011;63956;52.006;5.878;2023-02-03T05:50:42;12.10;;;1.52;;
75371;SDS011;63956;52.006;5.878;2023-02-03T05:53:11;10.55;;;1.25;;
75371;SDS011;63956;52.006;5.878;2023-02-03T05:58:09;10.82;;;1.17;;
75371;SDS011;63956;52.006;5.878;2023-02-03T06:03:07;9.80;;;1.45;;
75371;SDS011;63956;52.006;5.878;2023-02-03T06:05:39;7.20;;;1.58;;
75371;SDS011;63956;52.006;5.878;2023-02-03T06:08:09;7.32;;;1.67;;
75371;SDS011;63956;52.006;5.878;2023-02-03T06:10:38;8.15;;;1.50;;
75371;SDS011;63956;52.006;5.878;2023-02-03T06:13:08;12.45;;;0.93;;
75371;SDS011;63956;52.006;5.878;2023-02-03T06:15:38;9.18;;;1.80;;
75371;SDS011;63956;52.006;5.878;2023-02-03T06:18:08;7.97;;;1.65;;
75371;SDS011;63956;52.006;5.878;2023-02-03T06:23:08;8.43;;;1.58;;
75371;SDS011;63956;52.006;5.878;2023-02-03T06:25:38;10.77;;;1.13;;
75371;SDS011;63956;52.006;5.878;2023-02-03T06:30:36;8.23;;;2.13;;
75371;SDS011;63956;52.006;5.878;2023-02-03T06:33:05;5.68;;;0.90;;
75371;SDS011;63956;52.006;5.878;2023-02-03T06:35:34;8.05;;;1.35;;
75371;SDS011;63956;52.006;5.878;2023-02-03T06:38:06;8.63;;;1.98;;
75371;SDS011;63956;52.006;5.878;2023-02-03T06:40:35;7.85;;;1.55;;
75371;SDS011;63956;52.006;5.878;2023-02-03T06:45:33;11.90;;;1.42;;
75371;SDS011;63956;52.006;5.878;2023-02-03T06:50:32;7.55;;;1.75;;
75371;SDS011;63956;52.006;5.878;2023-02-03T06:53:01;9.27;;;1.42;;
75371;SDS011;63956;52.006;5.878;2023-02-03T06:58:02;9.00;;;1.42;;
75371;SDS011;63956;52.006;5.878;2023-02-03T07:00:31;11.25;;;1.92;;
75371;SDS011;63956;52.006;5.878;2023-02-03T07:05:29;10.13;;;1.83;;
75371;SDS011;63956;52.006;5.878;2023-02-03T07:08:00;10.38;;;1.73;;
75371;SDS011;63956;52.006;5.878;2023-02-03T07:13:03;10.50;;;1.58;;
75371;SDS011;63956;52.006;5.878;2023-02-03T07:18:03;13.57;;;1.73;;
75371;SDS011;63956;52.006;5.878;2023-02-03T07:20:32;11.35;;;2.10;;
75371;SDS011;63956;52.006;5.878;2023-02-03T07:23:01;9.30;;;2.08;;
75371;SDS011;63956;52.006;5.878;2023-02-03T07:25:30;8.60;;;1.30;;
75371;SDS011;63956;52.006;5.878;2023-02-03T07:30:31;7.93;;;1.58;;
75371;SDS011;63956;52.006;5.878;2023-02-03T07:33:00;7.78;;;1.70;;
75371;SDS011;63956;52.006;5.878;2023-02-03T07:35:29;10.73;;;1.33;;
75371;SDS011;63956;52.006;5.878;2023-02-03T07:37:59;9.82;;;1.00;;
75371;SDS011;63956;52.006;5.878;2023-02-03T07:40:28;7.20;;;1.25;;
75371;SDS011;63956;52.006;5.878;2023-02-03T07:45:26;6.80;;;1.30;;
75371;SDS011;63956;52.006;5.878;2023-02-03T07:47:57;7.97;;;1.00;;
75371;SDS011;63956;52.006;5.878;2023-02-03T07:50:26;8.52;;;1.63;;
75371;SDS011;63956;52.006;5.878;2023-02-03T07:52:57;13.10;;;1.92;;
75371;SDS011;63956;52.006;5.878;2023-02-03T07:57:56;9.23;;;1.38;;
75371;SDS011;63956;52.006;5.878;2023-02-03T08:00:25;6.80;;;1.02;;
75371;SDS011;63956;52.006;5.878;2023-02-03T08:02:54;7.80;;;1.35;;
75371;SDS011;63956;52.006;5.878;2023-02-03T08:05:26;8.23;;;2.03;;
75371;SDS011;63956;52.006;5.878;2023-02-03T08:07:57;7.75;;;0.93;;
75371;SDS011;63956;52.006;5.878;2023-02-03T08:12:55;10.40;;;1.40;;
75371;SDS011;63956;52.006;5.878;2023-02-03T08:17:53;7.30;;;1.17;;
75371;SDS011;63956;52.006;5.878;2023-02-03T08:22:53;7.95;;;1.73;;
75371;SDS011;63956;52.006;5.878;2023-02-03T08:27:51;9.40;;;1.25;;
75371;SDS011;63956;52.006;5.878;2023-02-03T08:32:50;11.27;;;1.40;;
75371;SDS011;63956;52.006;5.878;2023-02-03T08:35:19;9.25;;;1.70;;
75371;SDS011;63956;52.006;5.878;2023-02-03T08:40:20;9.80;;;1.70;;
75371;SDS011;63956;52.006;5.878;2023-02-03T08:42:49;7.82;;;1.45;;
75371;SDS011;63956;52.006;5.878;2023-02-03T08:45:18;7.40;;;1.35;;
75371;SDS011;63956;52.006;5.878;2023-02-03T08:47:48;8.70;;;1.77;;
75371;SDS011;63956;52.006;5.878;2023-02-03T08:50:17;7.53;;;1.63;;
75371;SDS011;63956;52.006;5.878;2023-02-03T08:52:46;10.93;;;1.45;;
75371;SDS011;63956;52.006;5.878;2023-02-03T08:55:18;7.85;;;1.02;;
75371;SDS011;63956;52.006;5.878;2023-02-03T08:57:47;8.88;;;1.50;;
75371;SDS011;63956;52.006;5.878;2023-02-03T09:00:17;8.35;;;1.25;;
75371;SDS011;63956;52.006;5.878;2023-02-03T09:02:47;5.10;;;1.00;;
75371;SDS011;63956;52.006;5.878;2023-02-03T09:05:16;8.63;;;1.52;;
75371;SDS011;63956;52.006;5.878;2023-02-03T09:07:45;4.60;;;1.10;;
75371;SDS011;63956;52.006;5.878;2023-02-03T09:10:15;10.52;;;2.83;;
75371;SDS011;63956;52.006;5.878;2023-02-03T09:12:47;9.05;;;1.17;;
75371;SDS011;63956;52.006;5.878;2023-02-03T09:15:16;7.70;;;1.65;;
75371;SDS011;63956;52.006;5.878;2023-02-03T09:17:45;9.57;;;1.63;;
75371;SDS011;63956;52.006;5.878;2023-02-03T09:20:14;9.50;;;1.63;;
75371;SDS011;63956;52.006;5.878;2023-02-03T09:22:44;8.52;;;1.75;;
75371;SDS011;63956;52.006;5.878;2023-02-03T09:25:13;7.88;;;1.10;;
75371;SDS011;63956;52.006;5.878;2023-02-03T09:27:45;9.07;;;1.58;;
75371;SDS011;63956;52.006;5.878;2023-02-03T09:30:14;8.63;;;2.05;;
75371;SDS011;63956;52.006;5.878;2023-02-03T09:32:44;8.25;;;1.35;;
75371;SDS011;63956;52.006;5.878;2023-02-03T09:35:18;6.57;;;1.23;;
75371;SDS011;63956;52.006;5.878;2023-02-03T09:37:48;7.10;;;1.17;;
75371;SDS011;63956;52.006;5.878;2023-02-03T09:43:01;9.75;;;0.98;;
75371;SDS011;63956;52.006;5.878;2023-02-03T09:45:44;13.73;;;1.85;;
75371;SDS011;63956;52.006;5.878;2023-02-03T09:48:15;8.48;;;2.00;;
75371;SDS011;63956;52.006;5.878;2023-02-03T09:50:48;6.30;;;1.55;;
75371;SDS011;63956;52.006;5.878;2023-02-03T09:53:22;7.35;;;1.42;;
75371;SDS011;63956;52.006;5.878;2023-02-03T09:55:56;10.75;;;1.30;;
75371;SDS011;63956;52.006;5.878;2023-02-03T09:58:31;5.13;;;1.35;;
75371;SDS011;63956;52.006;5.878;2023-02-03T10:01:02;8.93;;;1.88;;
75371;SDS011;63956;52.006;5.878;2023-02-03T10:03:35;7.90;;;1.75;;
75371;SDS011;63956;52.006;5.878;2023-02-03T10:06:11;6.53;;;1.67;;
75371;SDS011;63956;52.006;5.878;2023-02-03T10:08:51;6.47;;;1.50;;
75371;SDS011;63956;52.006;5.878;2023-02-03T10:11:34;8.77;;;1.58;;
75371;SDS011;63956;52.006;5.878;2023-02-03T10:14:21;7.60;;;1.25;;
75371;SDS011;63956;52.006;5.878;2023-02-03T10:17:05;8.40;;;2.00;;
75371;SDS011;63956;52.006;5.878;2023-02-03T10:19:44;10.27;;;1.30;;
75371;SDS011;63956;52.006;5.878;2023-02-03T10:22:19;5.90;;;1.13;;
75371;SDS011;63956;52.006;5.878;2023-02-03T10:24:51;6.78;;;1.20;;
75371;SDS011;63956;52.006;5.878;2023-02-03T10:27:25;9.23;;;1.83;;
75371;SDS011;63956;52.006;5.878;2023-02-03T10:29:59;7.25;;;1.00;;
75371;SDS011;63956;52.006;5.878;2023-02-03T10:32:32;7.90;;;1.38;;
75371;SDS011;63956;52.006;5.878;2023-02-03T10:35:04;9.18;;;1.40;;
75371;SDS011;63956;52.006;5.878;2023-02-03T10:37:40;6.35;;;1.38;;
75371;SDS011;63956;52.006;5.878;2023-02-03T10:40:12;6.63;;;1.50;;
75371;SDS011;63956;52.006;5.878;2023-02-03T10:42:43;5.90;;;1.38;;
75371;SDS011;63956;52.006;5.878;2023-02-03T10:45:30;6.90;;;1.08;;
75371;SDS011;63956;52.006;5.878;2023-02-03T10:48:06;11.63;;;1.70;;
75371;SDS011;63956;52.006;5.878;2023-02-03T10:50:41;6.63;;;1.40;;
75371;SDS011;63956;52.006;5.878;2023-02-03T10:53:22;8.63;;;1.95;;
75371;SDS011;63956;52.006;5.878;2023-02-03T10:55:58;9.77;;;1.13;;
75371;SDS011;63956;52.006;5.878;2023-02-03T10:58:33;8.43;;;1.35;;
75371;SDS011;63956;52.006;5.878;2023-02-03T11:01:09;10.00;;;1.48;;
75371;SDS011;63956;52.006;5.878;2023-02-03T11:03:40;8.98;;;1.95;;
75371;SDS011;63956;52.006;5.878;2023-02-03T11:06:11;7.32;;;1.70;;
75371;SDS011;63956;52.006;5.878;2023-02-03T11:08:42;11.27;;;1.50;;
75371;SDS011;63956;52.006;5.878;2023-02-03T11:11:13;6.82;;;1.88;;
75371;SDS011;63956;52.006;5.878;2023-02-03T11:13:51;6.95;;;1.35;;
75371;SDS011;63956;52.006;5.878;2023-02-03T11:16:23;7.97;;;1.17;;
75371;SDS011;63956;52.006;5.878;2023-02-03T11:18:56;8.48;;;1.60;;
75371;SDS011;63956;52.006;5.878;2023-02-03T11:21:28;9.93;;;1.48;;
75371;SDS011;63956;52.006;5.878;2023-02-03T11:24:00;8.98;;;2.13;;
75371;SDS011;63956;52.006;5.878;2023-02-03T11:26:33;6.50;;;1.17;;
75371;SDS011;63956;52.006;5.878;2023-02-03T11:29:04;8.23;;;1.23;;
75371;SDS011;63956;52.006;5.878;2023-02-03T11:31:37;4.95;;;0.82;;
75371;SDS011;63956;52.006;5.878;2023-02-03T11:34:13;7.40;;;1.35;;
75371;SDS011;63956;52.006;5.878;2023-02-03T11:36:44;8.80;;;1.50;;
75371;SDS011;63956;52.006;5.878;2023-02-03T11:39:18;5.50;;;0.80;;
75371;SDS011;63956;52.006;5.878;2023-02-03T11:41:51;4.80;;;1.15;;
75371;SDS011;63956;52.006;5.878;2023-02-03T11:44:23;6.57;;;0.98;;
75371;SDS011;63956;52.006;5.878;2023-02-03T11:46:59;8.43;;;1.67;;
75371;SDS011;63956;52.006;5.878;2023-02-03T11:52:44;8.82;;;1.33;;
75371;SDS011;63956;52.006;5.878;2023-02-03T11:55:27;7.97;;;1.05;;
75371;SDS011;63956;52.006;5.878;2023-02-03T11:58:06;8.07;;;0.95;;
75371;SDS011;63956;52.006;5.878;2023-02-03T12:00:50;9.80;;;1.27;;
75371;SDS011;63956;52.006;5.878;2023-02-03T12:03:41;6.40;;;2.03;;
75371;SDS011;63956;52.006;5.878;2023-02-03T12:09:47;10.65;;;1.67;;
75371;SDS011;63956;52.006;5.878;2023-02-03T12:12:23;10.50;;;1.85;;
75371;SDS011;63956;52.006;5.878;2023-02-03T12:15:13;6.53;;;1.48;;
75371;SDS011;63956;52.006;5.878;2023-02-03T12:18:03;11.25;;;1.38;;
75371;SDS011;63956;52.006;5.878;2023-02-03T12:20:52;9.38;;;1.55;;
75371;SDS011;63956;52.006;5.878;2023-02-03T12:23:35;4.07;;;0.82;;
75371;SDS011;63956;52.006;5.878;2023-02-03T12:26:14;7.05;;;1.13;;
75371;SDS011;63956;52.006;5.878;2023-02-03T12:28:49;7.30;;;2.65;;
75371;SDS011;63956;52.006;5.878;2023-02-03T12:31:25;8.55;;;1.17;;
75371;SDS011;63956;52.006;5.878;2023-02-03T12:34:05;5.78;;;1.35;;
75371;SDS011;63956;52.006;5.878;2023-02-03T12:36:46;9.43;;;2.33;;
75371;SDS011;63956;52.006;5.878;2023-02-03T12:39:23;3.22;;;0.90;;
75371;SDS011;63956;52.006;5.878;2023-02-03T12:41:58;7.13;;;1.13;;
75371;SDS011;63956;52.006;5.878;2023-02-03T12:44:34;6.45;;;1.25;;
75371;SDS011;63956;52.006;5.878;2023-02-03T12:47:12;7.45;;;1.08;;
75371;SDS011;63956;52.006;5.878;2023-02-03T12:49:49;11.38;;;1.27;;
75371;SDS011;63956;52.006;5.878;2023-02-03T12:52:25;9.05;;;1.25;;
75371;SDS011;63956;52.006;5.878;2023-02-03T12:55:02;9.30;;;1.83;;
75371;SDS011;63956;52.006;5.878;2023-02-03T12:57:43;8.80;;;1.17;;
75371;SDS011;63956;52.006;5.878;2023-02-03T13:00:22;7.20;;;1.40;;
75371;SDS011;63956;52.006;5.878;2023-02-03T13:03:09;11.00;;;2.08;;
75371;SDS011;63956;52.006;5.878;2023-02-03T13:05:43;9.77;;;1.63;;
75371;SDS011;63956;52.006;5.878;2023-02-03T13:08:28;10.23;;;1.35;;
75371;SDS011;63956;52.006;5.878;2023-02-03T13:11:05;9.80;;;1.63;;
75371;SDS011;63956;52.006;5.878;2023-02-03T13:13:41;7.97;;;2.13;;
75371;SDS011;63956;52.006;5.878;2023-02-03T13:16:16;13.25;;;2.42;;
75371;SDS011;63956;52.006;5.878;2023-02-03T13:18:52;15.23;;;2.08;;
75371;SDS011;63956;52.006;5.878;2023-02-03T13:21:26;11.85;;;2.17;;
75371;SDS011;63956;52.006;5.878;2023-02-03T13:23:59;17.13;;;2.08;;
75371;SDS011;63956;52.006;5.878;2023-02-03T13:29:42;11.90;;;2.13;;
75371;SDS011;63956;52.006;5.878;2023-02-03T13:32:26;7.60;;;1.17;;
75371;SDS011;63956;52.006;5.878;2023-02-03T13:35:13;14.43;;;2.22;;
75371;SDS011;63956;52.006;5.878;2023-02-03T13:38:10;11.93;;;2.05;;
75371;SDS011;63956;52.006;5.878;2023-02-03T13:41:01;10.82;;;1.92;;
75371;SDS011;63956;52.006;5.878;2023-02-03T13:43:36;11.73;;;1.65;;
75371;SDS011;63956;52.006;5.878;2023-02-03T13:46:17;13.20;;;2.47;;
75371;SDS011;63956;52.006;5.878;2023-02-03T13:48:49;15.27;;;2.72;;
75371;SDS011;63956;52.006;5.878;2023-02-03T13:51:20;14.00;;;1.75;;
75371;SDS011;63956;52.006;5.878;2023-02-03T13:53:57;11.63;;;1.42;;
75371;SDS011;63956;52.006;5.878;2023-02-03T13:56:31;14.18;;;2.22;;
75371;SDS011;63956;52.006;5.878;2023-02-03T13:59:02;17.05;;;2.00;;
75371;SDS011;63956;52.006;5.878;2023-02-03T14:01:33;15.30;;;2.53;;
75371;SDS011;63956;52.006;5.878;2023-02-03T14:04:05;18.77;;;2.78;;
75371;SDS011;63956;52.006;5.878;2023-02-03T14:12:35;16.45;;;1.42;;
75371;SDS011;63956;52.006;5.878;2023-02-03T14:21:08;15.73;;;1.80;;
75371;SDS011;63956;52.006;5.878;2023-02-03T14:23:41;14.50;;;2.58;;
75371;SDS011;63956;52.006;5.878;2023-02-03T14:26:21;17.35;;;2.80;;
75371;SDS011;63956;52.006;5.878;2023-02-03T14:29:09;14.10;;;2.33;;
75371;SDS011;63956;52.006;5.878;2023-02-03T14:31:53;15.43;;;1.98;;
75371;SDS011;63956;52.006;5.878;2023-02-03T14:34:34;15.90;;;2.13;;
75371;SDS011;63956;52.006;5.878;2023-02-03T14:37:09;18.92;;;2.35;;
75371;SDS011;63956;52.006;5.878;2023-02-03T14:42:50;11.25;;;2.00;;
75371;SDS011;63956;52.006;5.878;2023-02-03T14:52:08;14.57;;;1.27;;
75371;SDS011;63956;52.006;5.878;2023-02-03T14:54:59;12.13;;;2.00;;
75371;SDS011;63956;52.006;5.878;2023-02-03T14:57:42;16.52;;;2.22;;
75371;SDS011;63956;52.006;5.878;2023-02-03T15:00:27;16.23;;;2.08;;
75371;SDS011;63956;52.006;5.878;2023-02-03T15:05:51;15.57;;;2.63;;
75371;SDS011;63956;52.006;5.878;2023-02-03T15:08:35;25.50;;;2.40;;
75371;SDS011;63956;52.006;5.878;2023-02-03T15:16:55;15.77;;;1.70;;
75371;SDS011;63956;52.006;5.878;2023-02-03T15:19:27;16.90;;;2.15;;
75371;SDS011;63956;52.006;5.878;2023-02-03T15:22:15;24.02;;;2.55;;
75371;SDS011;63956;52.006;5.878;2023-02-03T15:24:46;16.55;;;2.78;;
75371;SDS011;63956;52.006;5.878;2023-02-03T15:27:20;20.05;;;2.15;;
75371;SDS011;63956;52.006;5.878;2023-02-03T15:29:50;10.80;;;2.08;;
75371;SDS011;63956;52.006;5.878;2023-02-03T15:32:22;20.92;;;2.70;;
75371;SDS011;63956;52.006;5.878;2023-02-03T15:34:54;19.65;;;2.17;;
75371;SDS011;63956;52.006;5.878;2023-02-03T15:37:29;16.95;;;2.53;;
75371;SDS011;63956;52.006;5.878;2023-02-03T15:40:02;10.68;;;1.63;;
75371;SDS011;63956;52.006;5.878;2023-02-03T15:42:35;16.17;;;2.28;;
75371;SDS011;63956;52.006;5.878;2023-02-03T15:45:08;19.27;;;2.42;;
75371;SDS011;63956;52.006;5.878;2023-02-03T15:47:50;26.83;;;3.45;;
75371;SDS011;63956;52.006;5.878;2023-02-03T15:50:24;16.25;;;2.10;;
75371;SDS011;63956;52.006;5.878;2023-02-03T15:53:01;15.68;;;2.33;;
75371;SDS011;63956;52.006;5.878;2023-02-03T15:55:35;17.77;;;2.10;;
75371;SDS011;63956;52.006;5.878;2023-02-03T15:58:13;21.00;;;2.78;;
75371;SDS011;63956;52.006;5.878;2023-02-03T16:00:46;13.55;;;1.58;;
75371;SDS011;63956;52.006;5.878;2023-02-03T16:03:18;18.52;;;2.58;;
75371;SDS011;63956;52.006;5.878;2023-02-03T16:05:49;16.25;;;2.28;;
75371;SDS011;63956;52.006;5.878;2023-02-03T16:08:27;13.48;;;1.92;;
75371;SDS011;63956;52.006;5.878;2023-02-03T16:11:04;14.88;;;2.10;;
75371;SDS011;63956;52.006;5.878;2023-02-03T16:13:49;17.48;;;2.50;;
75371;SDS011;63956;52.006;5.878;2023-02-03T16:16:20;22.17;;;3.13;;
75371;SDS011;63956;52.006;5.878;2023-02-03T16:18:52;15.38;;;2.05;;
75371;SDS011;63956;52.006;5.878;2023-02-03T16:21:26;17.10;;;1.85;;
75371;SDS011;63956;52.006;5.878;2023-02-03T16:24:01;19.80;;;1.98;;
75371;SDS011;63956;52.006;5.878;2023-02-03T16:26:32;10.40;;;2.15;;
75371;SDS011;63956;52.006;5.878;2023-02-03T16:29:13;16.08;;;2.95;;
75371;SDS011;63956;52.006;5.878;2023-02-03T16:31:55;9.05;;;1.60;;
75371;SDS011;63956;52.006;5.878;2023-02-03T16:34:36;19.17;;;2.20;;
75371;SDS011;63956;52.006;5.878;2023-02-03T16:37:21;7.95;;;1.35;;
75371;SDS011;63956;52.006;5.878;2023-02-03T16:40:06;15.07;;;2.10;;
75371;SDS011;63956;52.006;5.878;2023-02-03T16:42:49;14.68;;;2.10;;
75371;SDS011;63956;52.006;5.878;2023-02-03T16:45:30;13.40;;;2.05;;
75371;SDS011;63956;52.006;5.878;2023-02-03T16:48:12;15.52;;;2.22;;
75371;SDS011;63956;52.006;5.878;2023-02-03T16:50:53;18.05;;;2.17;;
75371;SDS011;63956;52.006;5.878;2023-02-03T16:53:23;15.23;;;1.83;;
75371;SDS011;63956;52.006;5.878;2023-02-03T16:55:56;21.48;;;2.42;;
75371;SDS011;63956;52.006;5.878;2023-02-03T16:58:27;16.65;;;2.90;;
75371;SDS011;63956;52.006;5.878;2023-02-03T17:03:26;10.73;;;2.00;;
75371;SDS011;63956;52.006;5.878;2023-02-03T17:06:00;14.88;;;2.05;;
75371;SDS011;63956;52.006;5.878;2023-02-03T17:08:30;17.05;;;1.63;;
75371;SDS011;63956;52.006;5.878;2023-02-03T17:11:06;18.15;;;1.92;;
75371;SDS011;63956;52.006;5.878;2023-02-03T17:13:37;17.30;;;1.85;;
75371;SDS011;63956;52.006;5.878;2023-02-03T17:16:08;24.23;;;4.80;;
75371;SDS011;63956;52.006;5.878;2023-02-03T17:18:39;11.85;;;1.33;;
75371;SDS011;63956;52.006;5.878;2023-02-03T17:23:39;13.32;;;2.35;;
75371;SDS011;63956;52.006;5.878;2023-02-03T17:26:10;16.67;;;2.28;;
75371;SDS011;63956;52.006;5.878;2023-02-03T17:28:40;14.38;;;1.75;;
75371;SDS011;63956;52.006;5.878;2023-02-03T17:31:11;17.00;;;2.42;;
75371;SDS011;63956;52.006;5.878;2023-02-03T17:33:42;12.55;;;2.50;;
75371;SDS011;63956;52.006;5.878;2023-02-03T17:36:12;19.08;;;2.70;;
75371;SDS011;63956;52.006;5.878;2023-02-03T17:38:45;12.90;;;2.83;;
75371;SDS011;63956;52.006;5.878;2023-02-03T17:41:20;17.63;;;2.90;;
75371;SDS011;63956;52.006;5.878;2023-02-03T17:43:50;16.55;;;1.98;;
75371;SDS011;63956;52.006;5.878;2023-02-03T17:46:20;14.20;;;2.03;;
75371;SDS011;63956;52.006;5.878;2023-02-03T17:48:52;16.33;;;3.22;;
75371;SDS011;63956;52.006;5.878;2023-02-03T17:51:22;20.33;;;4.10;;